createdAt,value
2022-10-16T00:01:15.790Z,7.93
2022-10-16T00:03:46.227Z,7.63
2022-10-16T00:06:16.662Z,5.93
2022-10-16T00:08:45.909Z,6.03
2022-10-16T00:11:17.587Z,7.20
2022-10-16T00:13:47.544Z,6.40
2022-10-16T00:16:17.747Z,7.37
2022-10-16T00:18:46.716Z,5.97
2022-10-16T00:21:17.682Z,6.07
2022-10-16T00:23:46.894Z,6.63
2022-10-16T00:26:18.025Z,6.63
2022-10-16T00:28:48.790Z,8.57
2022-10-16T00:31:24.106Z,7.07
2022-10-16T00:34:06.792Z,7.40
2022-10-16T00:36:35.310Z,6.40
2022-10-16T00:39:03.816Z,6.17
2022-10-16T00:41:33.324Z,5.73
2022-10-16T00:44:03.622Z,6.00
2022-10-16T00:46:40.420Z,6.47
2022-10-16T00:49:17.377Z,8.37
2022-10-16T00:51:49.019Z,5.57
2022-10-16T00:54:22.410Z,6.20
2022-10-16T00:56:52.323Z,5.13
2022-10-16T00:59:25.676Z,5.90
2022-10-16T01:01:56.867Z,6.47
2022-10-16T01:04:26.751Z,6.23
2022-10-16T01:07:02.482Z,7.13
2022-10-16T01:09:39.471Z,5.90
2022-10-16T01:12:13.077Z,6.20
2022-10-16T01:14:48.457Z,7.13
2022-10-16T01:17:24.457Z,6.53
2022-10-16T01:20:05.330Z,5.53
2022-10-16T01:22:45.966Z,6.77
2022-10-16T01:25:21.002Z,6.63
2022-10-16T01:27:52.296Z,5.67
2022-10-16T01:30:25.082Z,5.00
2022-10-16T01:32:59.945Z,6.47
2022-10-16T01:35:32.716Z,5.47
2022-10-16T01:38:06.381Z,5.67
2022-10-16T01:40:37.661Z,5.83
2022-10-16T01:43:13.196Z,6.53
2022-10-16T01:45:44.263Z,5.60
2022-10-16T01:48:16.119Z,7.10
2022-10-16T01:50:46.912Z,6.93
2022-10-16T01:53:17.171Z,4.97
2022-10-16T01:55:49.632Z,6.07
2022-10-16T01:58:19.967Z,5.67
2022-10-16T02:00:50.135Z,8.53
2022-10-16T02:03:22.033Z,8.23
2022-10-16T02:05:55.518Z,5.67
2022-10-16T02:08:27.204Z,11.33
2022-10-16T02:10:57.211Z,8.37
2022-10-16T02:13:32.873Z,7.83
2022-10-16T02:16:01.626Z,7.07
2022-10-16T02:18:32.000Z,6.90
2022-10-16T02:21:04.915Z,5.97
2022-10-16T02:23:40.967Z,10.47
2022-10-16T02:26:15.059Z,5.27
2022-10-16T02:28:49.819Z,6.67
2022-10-16T02:31:25.466Z,7.23
2022-10-16T02:33:55.381Z,6.00
2022-10-16T02:36:24.936Z,5.80
2022-10-16T02:38:54.718Z,6.33
2022-10-16T02:41:24.820Z,5.27
2022-10-16T02:43:56.280Z,9.70
2022-10-16T02:46:25.240Z,6.03
2022-10-16T02:48:53.795Z,6.10
2022-10-16T02:51:22.406Z,6.53
2022-10-16T02:53:51.116Z,5.90
2022-10-16T02:58:55.154Z,4.87
2022-10-16T03:01:23.927Z,5.67
2022-10-16T03:04:08.625Z,6.30
2022-10-16T03:06:37.360Z,5.60
2022-10-16T03:09:05.964Z,5.23
2022-10-16T03:11:34.390Z,6.27
2022-10-16T03:14:04.697Z,6.73
2022-10-16T03:16:33.214Z,7.67
2022-10-16T03:19:01.857Z,5.43
2022-10-16T03:21:30.885Z,6.27
2022-10-16T03:23:59.733Z,6.03
2022-10-16T03:26:28.354Z,6.03
2022-10-16T03:28:57.114Z,4.73
2022-10-16T03:31:27.254Z,5.23
2022-10-16T03:33:55.929Z,6.37
2022-10-16T03:36:50.070Z,6.23
2022-10-16T03:39:18.941Z,6.77
2022-10-16T03:41:47.632Z,6.03
2022-10-16T03:44:17.509Z,5.77
2022-10-16T03:46:47.765Z,7.67
2022-10-16T03:49:16.547Z,8.97
2022-10-16T03:51:45.138Z,7.83
2022-10-16T03:54:13.923Z,5.77
2022-10-16T03:56:56.192Z,7.43
2022-10-16T03:59:24.885Z,6.90
2022-10-16T04:01:55.036Z,7.30
2022-10-16T04:04:23.558Z,8.53
2022-10-16T04:06:52.019Z,8.87
2022-10-16T04:09:20.882Z,8.00
2022-10-16T04:11:49.817Z,8.37
2022-10-16T04:14:18.415Z,7.17
2022-10-16T04:16:47.168Z,8.37
2022-10-16T04:19:20.287Z,6.53
2022-10-16T04:22:01.578Z,7.27
2022-10-16T04:24:30.401Z,8.60
2022-10-16T04:26:59.029Z,9.20
2022-10-16T04:29:27.701Z,7.30
2022-10-16T04:31:56.210Z,6.67
2022-10-16T04:34:26.769Z,5.93
2022-10-16T04:36:55.398Z,8.13
2022-10-16T04:39:24.007Z,6.30
2022-10-16T04:41:52.846Z,8.00
2022-10-16T04:44:21.296Z,8.17
2022-10-16T04:46:52.575Z,7.40
2022-10-16T04:49:21.025Z,7.20
2022-10-16T04:51:51.112Z,6.17
2022-10-16T04:54:19.670Z,6.27
2022-10-16T04:56:51.332Z,7.27
2022-10-16T04:59:20.911Z,12.17
2022-10-16T05:01:49.836Z,12.93
2022-10-16T05:04:42.942Z,18.83
2022-10-16T05:07:13.214Z,11.70
2022-10-16T05:09:44.497Z,8.57
2022-10-16T05:12:13.412Z,7.60
2022-10-16T05:14:42.010Z,8.00
2022-10-16T05:17:10.866Z,7.10
2022-10-16T05:19:44.161Z,7.17
2022-10-16T05:22:14.418Z,6.83
2022-10-16T05:24:43.198Z,9.40
2022-10-16T05:27:19.894Z,7.57
2022-10-16T05:29:49.292Z,8.50
2022-10-16T05:32:19.097Z,6.50
2022-10-16T05:34:48.723Z,7.50
2022-10-16T05:37:43.606Z,7.60
2022-10-16T05:40:13.853Z,9.00
2022-10-16T05:42:42.896Z,7.43
2022-10-16T05:45:13.885Z,7.10
2022-10-16T05:47:42.656Z,7.37
2022-10-16T05:50:11.414Z,7.93
2022-10-16T05:52:47.348Z,5.40
2022-10-16T05:55:25.221Z,8.70
2022-10-16T05:57:56.357Z,7.23
2022-10-16T06:00:24.806Z,8.63
2022-10-16T06:02:53.456Z,8.37
2022-10-16T06:05:21.892Z,9.87
2022-10-16T06:07:51.755Z,9.83
2022-10-16T06:10:20.182Z,9.83
2022-10-16T06:12:48.405Z,13.60
2022-10-16T06:15:16.854Z,9.43
2022-10-16T06:17:45.278Z,9.83
2022-10-16T06:20:13.768Z,13.57
2022-10-16T06:22:42.250Z,12.60
2022-10-16T06:25:12.468Z,11.57
2022-10-16T06:27:42.435Z,10.13
2022-10-16T06:30:11.886Z,9.47
2022-10-16T06:32:40.279Z,10.37
2022-10-16T06:35:34.437Z,9.17
2022-10-16T06:38:03.137Z,9.70
2022-10-16T06:40:33.402Z,12.03
2022-10-16T06:43:01.876Z,9.07
2022-10-16T06:45:30.484Z,10.57
2022-10-16T06:47:58.945Z,8.97
2022-10-16T06:50:27.228Z,7.13
2022-10-16T06:52:55.526Z,7.43
2022-10-16T06:55:23.928Z,9.33
2022-10-16T06:57:53.755Z,12.03
2022-10-16T07:00:22.325Z,8.40
2022-10-16T07:02:50.989Z,8.93
2022-10-16T07:05:19.213Z,9.00
2022-10-16T07:07:47.815Z,7.70
2022-10-16T07:10:16.218Z,9.23
2022-10-16T07:12:46.305Z,8.53
2022-10-16T07:15:16.649Z,14.20
2022-10-16T07:17:45.016Z,8.10
2022-10-16T07:20:13.406Z,7.47
2022-10-16T07:22:41.956Z,7.33
2022-10-16T07:25:11.013Z,8.07
2022-10-16T07:27:40.577Z,9.80
2022-10-16T07:30:10.282Z,10.23
2022-10-16T07:32:40.339Z,6.90
2022-10-16T07:35:09.913Z,9.27
2022-10-16T07:37:38.261Z,10.63
2022-10-16T07:40:08.211Z,6.00
2022-10-16T07:42:36.467Z,7.13
2022-10-16T07:45:05.775Z,8.30
2022-10-16T07:47:34.105Z,6.20
2022-10-16T07:50:04.490Z,7.23
2022-10-16T07:52:33.048Z,6.67
2022-10-16T07:55:01.732Z,6.60
2022-10-16T07:57:30.244Z,7.30
2022-10-16T07:59:58.524Z,6.90
2022-10-16T08:02:27.357Z,10.97
2022-10-16T08:04:55.731Z,6.70
2022-10-16T08:07:26.386Z,7.37
2022-10-16T08:09:55.072Z,8.60
2022-10-16T08:12:23.515Z,8.53
2022-10-16T08:14:51.844Z,8.80
2022-10-16T08:17:20.724Z,7.40
2022-10-16T08:19:49.576Z,6.87
2022-10-16T08:22:17.892Z,7.50
2022-10-16T08:24:47.809Z,9.27
2022-10-16T08:27:16.296Z,7.07
2022-10-16T08:29:44.804Z,7.73
2022-10-16T08:32:13.167Z,8.50
2022-10-16T08:34:41.670Z,6.33
2022-10-16T08:37:12.401Z,8.77
2022-10-16T08:39:40.910Z,7.70
2022-10-16T08:42:34.073Z,8.50
2022-10-16T08:45:31.759Z,6.90
2022-10-16T08:48:15.395Z,7.07
2022-10-16T08:50:45.515Z,7.97
2022-10-16T08:53:20.229Z,8.27
2022-10-16T08:55:52.286Z,8.90
2022-10-16T08:58:23.894Z,7.20
2022-10-16T09:00:57.317Z,7.60
2022-10-16T09:03:44.464Z,7.80
2022-10-16T09:06:28.129Z,6.33
2022-10-16T09:09:13.503Z,7.83
2022-10-16T09:11:49.900Z,10.13
2022-10-16T09:17:32.457Z,8.50
2022-10-16T09:20:31.207Z,8.50
2022-10-16T09:23:14.700Z,4.53
2022-10-16T09:25:48.661Z,8.53
2022-10-16T09:28:18.656Z,8.97
2022-10-16T09:30:49.458Z,6.63
2022-10-16T09:33:22.759Z,4.87
2022-10-16T09:35:53.881Z,5.30
2022-10-16T09:38:29.026Z,5.17
2022-10-16T09:41:03.063Z,7.77
2022-10-16T09:43:39.143Z,5.23
2022-10-16T09:46:09.200Z,4.57
2022-10-16T09:48:46.028Z,6.17
2022-10-16T09:51:22.508Z,5.90
2022-10-16T09:53:51.058Z,6.00
2022-10-16T09:56:31.827Z,5.03
2022-10-16T09:59:03.130Z,4.30
2022-10-16T10:01:38.148Z,4.20
2022-10-16T10:04:12.124Z,5.83
2022-10-16T10:06:45.667Z,6.03
2022-10-16T10:09:20.891Z,4.13
2022-10-16T10:11:55.471Z,4.23
2022-10-16T10:14:37.271Z,4.47
2022-10-16T10:17:14.245Z,3.97
2022-10-16T10:19:51.060Z,4.70
2022-10-16T10:22:27.711Z,5.20
2022-10-16T10:25:17.420Z,5.10
2022-10-16T10:28:08.967Z,10.33
2022-10-16T10:30:43.707Z,6.03
2022-10-16T10:33:21.035Z,5.50
2022-10-16T10:36:02.833Z,5.53
2022-10-16T10:38:41.956Z,5.50
2022-10-16T10:41:57.207Z,3.67
2022-10-16T10:44:40.562Z,5.47
2022-10-16T10:47:17.850Z,7.47
2022-10-16T10:49:57.039Z,5.30
2022-10-16T10:52:45.498Z,4.50
2022-10-16T10:55:22.250Z,5.63
2022-10-16T10:58:17.455Z,3.87
2022-10-16T11:01:15.517Z,3.90
2022-10-16T11:04:05.217Z,4.07
2022-10-16T11:06:38.025Z,4.43
2022-10-16T11:09:13.826Z,4.03
2022-10-16T11:11:46.423Z,3.97
2022-10-16T11:14:21.316Z,3.80
2022-10-16T11:16:55.508Z,4.80
2022-10-16T11:19:34.260Z,5.17
2022-10-16T11:22:08.083Z,3.70
2022-10-16T11:24:45.424Z,3.83
2022-10-16T11:27:19.094Z,3.53
2022-10-16T11:29:53.980Z,4.03
2022-10-16T11:32:27.673Z,6.20
2022-10-16T11:35:02.377Z,3.17
2022-10-16T11:37:43.534Z,3.07
2022-10-16T11:40:24.016Z,6.23
2022-10-16T11:42:59.374Z,4.30
2022-10-16T11:45:37.237Z,5.13
2022-10-16T11:48:18.099Z,4.97
2022-10-16T11:50:52.375Z,6.87
2022-10-16T11:53:31.181Z,3.80
2022-10-16T11:56:01.065Z,9.23
2022-10-16T11:58:34.388Z,4.80
2022-10-16T12:01:15.808Z,3.63
2022-10-16T12:03:51.381Z,4.43
2022-10-16T12:06:33.658Z,4.30
2022-10-16T12:09:03.205Z,5.60
2022-10-16T12:11:39.134Z,3.83
2022-10-16T12:14:42.962Z,4.37
2022-10-16T12:17:36.708Z,4.13
2022-10-16T12:20:24.784Z,4.97
2022-10-16T12:22:56.380Z,3.53
2022-10-16T12:25:29.173Z,4.60
2022-10-16T12:28:01.611Z,3.97
2022-10-16T12:30:35.178Z,3.80
2022-10-16T12:33:07.635Z,3.20
2022-10-16T12:35:45.195Z,6.00
2022-10-16T12:38:20.073Z,4.57
2022-10-16T12:40:57.077Z,3.63
2022-10-16T12:43:39.124Z,5.67
2022-10-16T12:46:37.614Z,5.23
2022-10-16T12:49:25.544Z,3.30
2022-10-16T12:51:56.461Z,4.13
2022-10-16T12:54:31.154Z,4.27
2022-10-16T12:57:14.997Z,6.57
2022-10-16T12:59:56.381Z,3.90
2022-10-16T13:02:50.588Z,3.00
2022-10-16T13:05:40.721Z,3.03
2022-10-16T13:08:24.868Z,3.50
2022-10-16T13:11:04.789Z,3.37
2022-10-16T13:13:52.340Z,4.53
2022-10-16T13:16:30.473Z,4.10
2022-10-16T13:19:08.883Z,3.93
2022-10-16T13:21:47.636Z,3.17
2022-10-16T13:24:28.180Z,2.20
2022-10-16T13:27:03.101Z,3.03
2022-10-16T13:29:33.150Z,2.00
2022-10-16T13:32:09.437Z,3.03
2022-10-16T13:34:46.982Z,4.50
2022-10-16T13:37:20.817Z,4.30
2022-10-16T13:39:50.922Z,5.17
2022-10-16T13:42:27.984Z,3.07
2022-10-16T13:44:57.990Z,2.80
2022-10-16T13:47:30.319Z,2.60
2022-10-16T13:50:03.273Z,3.77
2022-10-16T13:52:32.328Z,2.10
2022-10-16T13:55:02.264Z,2.80
2022-10-16T13:57:31.323Z,2.23
2022-10-16T13:59:59.805Z,3.27
2022-10-16T14:02:36.007Z,3.27
2022-10-16T14:05:05.826Z,2.40
2022-10-16T14:07:36.592Z,2.40
2022-10-16T14:10:07.984Z,2.23
2022-10-16T14:12:37.441Z,2.87
2022-10-16T14:15:06.871Z,4.87
2022-10-16T14:17:37.919Z,2.37
2022-10-16T14:20:08.592Z,7.53
2022-10-16T14:22:39.143Z,5.63
2022-10-16T14:25:27.558Z,2.83
2022-10-16T14:28:22.739Z,2.23
2022-10-16T14:30:53.807Z,4.47
2022-10-16T14:33:35.492Z,2.27
2022-10-16T14:36:07.206Z,2.33
2022-10-16T14:38:36.187Z,2.50
2022-10-16T14:41:06.645Z,3.63
2022-10-16T14:43:37.119Z,3.87
2022-10-16T14:46:09.254Z,6.03
2022-10-16T14:48:43.598Z,3.07
2022-10-16T14:51:16.974Z,2.83
2022-10-16T14:53:45.398Z,4.00
2022-10-16T14:56:20.268Z,2.43
2022-10-16T14:58:49.206Z,2.50
2022-10-16T15:01:17.567Z,3.90
2022-10-16T15:04:14.280Z,2.70
2022-10-16T15:06:42.750Z,3.90
2022-10-16T15:09:11.256Z,3.80
2022-10-16T15:11:40.198Z,3.00
2022-10-16T15:14:08.752Z,3.80
2022-10-16T15:16:37.192Z,4.10
2022-10-16T15:19:05.615Z,3.93
2022-10-16T15:21:35.611Z,5.27
2022-10-16T15:24:04.200Z,3.30
2022-10-16T15:26:32.685Z,3.27
2022-10-16T15:29:01.291Z,4.27
2022-10-16T15:31:29.646Z,3.00
2022-10-16T15:34:07.120Z,3.43
2022-10-16T15:36:39.387Z,7.20
2022-10-16T15:39:12.360Z,16.37
2022-10-16T15:44:09.374Z,12.90
2022-10-16T15:46:38.473Z,3.67
2022-10-16T15:49:08.075Z,5.70
2022-10-16T15:51:41.011Z,3.33
2022-10-16T15:54:23.879Z,6.00
2022-10-16T15:56:52.530Z,7.73
2022-10-16T15:59:20.930Z,3.80
2022-10-16T16:01:49.379Z,7.03
2022-10-16T16:04:42.375Z,7.37
2022-10-16T16:07:08.383Z,10.43
2022-10-16T16:09:36.877Z,7.93
2022-10-16T16:12:06.919Z,7.00
2022-10-16T16:14:53.466Z,8.30
2022-10-16T16:17:21.960Z,5.63
2022-10-16T16:19:52.614Z,8.90
2022-10-16T16:22:22.401Z,7.60
2022-10-16T16:24:50.760Z,8.70
2022-10-16T16:27:20.733Z,5.70
2022-10-16T16:29:49.543Z,5.97
2022-10-16T16:32:17.848Z,6.43
2022-10-16T16:34:46.530Z,13.70
2022-10-16T16:37:15.206Z,21.00
2022-10-16T16:39:45.216Z,19.37
2022-10-16T16:42:13.654Z,14.10
2022-10-16T16:44:42.408Z,12.13
2022-10-16T16:47:35.556Z,13.67
2022-10-16T16:50:06.057Z,11.47
2022-10-16T16:52:34.461Z,10.40
2022-10-16T16:55:04.587Z,10.80
2022-10-16T16:57:33.179Z,10.57
2022-10-16T17:00:01.861Z,8.60
2022-10-16T17:02:30.494Z,7.27
2022-10-16T17:04:59.224Z,5.90
2022-10-16T17:07:35.629Z,8.67
2022-10-16T17:10:06.005Z,6.43
2022-10-16T17:12:34.643Z,6.63
2022-10-16T17:15:02.966Z,7.93
2022-10-16T17:17:31.369Z,7.27
2022-10-16T17:19:59.693Z,11.00
2022-10-16T17:22:28.329Z,9.03
2022-10-16T17:24:57.042Z,9.50
2022-10-16T17:27:27.074Z,8.57
2022-10-16T17:29:55.374Z,6.17
2022-10-16T17:32:24.260Z,9.37
2022-10-16T17:34:52.669Z,8.67
2022-10-16T17:37:21.010Z,7.17
2022-10-16T17:39:52.682Z,10.23
2022-10-16T17:42:20.930Z,10.00
2022-10-16T17:44:50.788Z,11.97
2022-10-16T17:47:43.861Z,17.63
2022-10-16T17:50:15.592Z,17.00
2022-10-16T17:52:44.507Z,18.97
2022-10-16T17:55:13.235Z,18.67
2022-10-16T17:58:00.085Z,16.27
2022-10-16T18:00:30.525Z,16.17
2022-10-16T18:02:59.054Z,13.60
2022-10-16T18:05:27.657Z,16.57
2022-10-16T18:07:56.147Z,10.90
2022-10-16T18:10:24.585Z,11.57
2022-10-16T18:12:53.159Z,8.87
2022-10-16T18:15:21.559Z,7.43
2022-10-16T18:17:51.346Z,10.20
2022-10-16T18:20:20.901Z,9.27
2022-10-16T18:22:49.387Z,10.03
2022-10-16T18:25:17.724Z,9.20
2022-10-16T18:27:46.131Z,12.73
2022-10-16T18:30:14.619Z,9.77
2022-10-16T18:32:43.251Z,9.40
2022-10-16T18:37:47.079Z,13.23
2022-10-16T18:40:15.554Z,8.10
2022-10-16T18:42:44.211Z,13.13
2022-10-16T18:45:12.944Z,10.50
2022-10-16T18:47:41.643Z,9.90
2022-10-16T18:50:11.851Z,9.37
2022-10-16T18:52:49.205Z,11.40
2022-10-16T18:55:18.369Z,11.37
2022-10-16T18:57:46.981Z,11.70
2022-10-16T19:00:15.930Z,10.10
2022-10-16T19:02:44.510Z,11.77
2022-10-16T19:05:15.686Z,11.53
2022-10-16T19:07:48.866Z,12.23
2022-10-16T19:10:17.382Z,9.23
2022-10-16T19:12:45.958Z,9.77
2022-10-16T19:15:14.840Z,8.33
2022-10-16T19:17:43.621Z,11.90
2022-10-16T19:20:12.383Z,8.67
2022-10-16T19:22:54.588Z,11.17
2022-10-16T19:25:24.908Z,9.93
2022-10-16T19:27:53.659Z,9.33
2022-10-16T19:30:23.335Z,12.70
2022-10-16T19:32:53.157Z,10.50
2022-10-16T19:35:21.975Z,11.87
2022-10-16T19:37:52.481Z,11.53
2022-10-16T19:40:21.119Z,8.87
2022-10-16T19:42:51.151Z,9.93
2022-10-16T19:45:20.095Z,9.07
2022-10-16T19:47:48.571Z,8.87
2022-10-16T19:50:19.174Z,12.17
2022-10-16T19:52:48.200Z,8.10
2022-10-16T19:55:17.771Z,9.07
2022-10-16T19:57:46.932Z,9.23
2022-10-16T20:00:18.077Z,8.93
2022-10-16T20:02:47.563Z,11.10
2022-10-16T20:05:16.137Z,12.37
2022-10-16T20:07:44.606Z,11.23
2022-10-16T20:10:13.240Z,10.10
2022-10-16T20:12:41.726Z,11.00
2022-10-16T20:15:11.245Z,10.47
2022-10-16T20:18:06.342Z,10.77
2022-10-16T20:20:39.004Z,9.70
2022-10-16T20:23:08.060Z,10.83
2022-10-16T20:25:37.356Z,10.70
2022-10-16T20:28:06.802Z,10.37
2022-10-16T20:30:35.864Z,11.17
2022-10-16T20:33:08.554Z,8.20
2022-10-16T20:35:38.352Z,9.90
2022-10-16T20:38:07.279Z,9.50
2022-10-16T20:40:36.594Z,10.07
2022-10-16T20:43:05.879Z,10.60
2022-10-16T20:45:34.450Z,9.37
2022-10-16T20:48:03.309Z,8.00
2022-10-16T20:50:33.724Z,9.13
2022-10-16T20:53:02.160Z,11.07
2022-10-16T20:55:31.044Z,12.17
2022-10-16T20:57:59.877Z,10.77
2022-10-16T21:00:28.536Z,10.17
2022-10-16T21:02:57.744Z,9.63
2022-10-16T21:05:28.826Z,8.87
2022-10-16T21:07:59.515Z,8.57
2022-10-16T21:10:27.822Z,10.03
2022-10-16T21:12:57.427Z,9.30
2022-10-16T21:15:26.127Z,12.60
2022-10-16T21:17:54.920Z,12.33
2022-10-16T21:20:23.194Z,12.70
2022-10-16T21:22:51.698Z,11.83
2022-10-16T21:25:21.587Z,10.03
2022-10-16T21:27:50.187Z,11.10
2022-10-16T21:30:18.540Z,12.03
2022-10-16T21:32:47.216Z,13.27
2022-10-16T21:35:16.336Z,12.00
2022-10-16T21:37:49.454Z,8.67
2022-10-16T21:40:18.049Z,11.43
2022-10-16T21:42:48.314Z,9.93
2022-10-16T21:45:16.699Z,10.73
2022-10-16T21:47:45.268Z,10.67
2022-10-16T21:50:14.124Z,10.70
2022-10-16T21:55:25.382Z,11.23
2022-10-16T21:57:55.829Z,9.40
2022-10-16T22:00:24.563Z,9.90
2022-10-16T22:02:52.908Z,9.50
2022-10-16T22:05:21.340Z,9.17
2022-10-16T22:07:49.918Z,12.90
2022-10-16T22:10:18.479Z,11.03
2022-10-16T22:12:47.087Z,11.50
2022-10-16T22:15:18.114Z,11.00
2022-10-16T22:17:46.627Z,9.63
2022-10-16T22:20:15.394Z,10.97
2022-10-16T22:22:44.011Z,9.60
2022-10-16T22:25:12.677Z,9.63
2022-10-16T22:27:41.087Z,10.17
2022-10-16T22:30:10.852Z,11.17
2022-10-16T22:32:41.034Z,12.63
2022-10-16T22:35:11.785Z,13.13
2022-10-16T22:37:40.389Z,12.27
2022-10-16T22:40:10.605Z,9.53
2022-10-16T22:42:43.516Z,10.00
2022-10-16T22:45:12.334Z,11.20
2022-10-16T22:47:42.332Z,10.93
2022-10-16T22:50:11.133Z,10.67
2022-10-16T22:52:39.767Z,11.40
2022-10-16T22:55:08.555Z,11.93
2022-10-16T22:57:36.977Z,16.60
2022-10-16T23:00:06.701Z,11.63
2022-10-16T23:02:35.408Z,12.07
2022-10-16T23:05:07.835Z,13.23
2022-10-16T23:07:36.502Z,13.13
2022-10-16T23:10:05.746Z,10.47
2022-10-16T23:12:34.745Z,10.47
2022-10-16T23:15:03.174Z,12.70
2022-10-16T23:17:31.505Z,10.57
2022-10-16T23:20:00.135Z,11.73
2022-10-16T23:22:30.407Z,9.73
2022-10-16T23:24:59.546Z,11.37
2022-10-16T23:27:27.927Z,10.50
2022-10-16T23:29:56.333Z,12.97
2022-10-16T23:32:24.806Z,14.07
2022-10-16T23:34:53.657Z,12.30
2022-10-16T23:37:22.420Z,16.47
2022-10-16T23:39:53.878Z,10.97
2022-10-16T23:42:23.763Z,12.77
2022-10-16T23:44:52.248Z,9.93
2022-10-16T23:47:20.564Z,11.50
2022-10-16T23:49:51.825Z,9.83
2022-10-16T23:52:20.208Z,9.93
2022-10-16T23:54:49.038Z,11.93
2022-10-16T23:57:19.211Z,12.00
2022-10-16T23:59:47.665Z,12.47
